createdAt,value
2023-04-08T00:02:26.871Z,14.75
2023-04-08T00:04:55.692Z,15.48
2023-04-08T00:07:23.753Z,14.63
2023-04-08T00:09:52.761Z,16.65
2023-04-08T00:12:21.285Z,19.42
2023-04-08T00:14:49.572Z,15.80
2023-04-08T00:17:17.676Z,14.27
2023-04-08T00:19:46.137Z,14.55
2023-04-08T00:22:14.378Z,16.77
2023-04-08T00:24:43.498Z,15.75
2023-04-08T00:27:11.210Z,15.35
2023-04-08T00:29:39.821Z,16.48
2023-04-08T00:32:08.287Z,19.10
2023-04-08T00:34:37.785Z,18.77
2023-04-08T00:37:05.960Z,19.75
2023-04-08T00:39:34.510Z,19.30
2023-04-08T00:42:02.543Z,20.50
2023-04-08T00:44:30.753Z,19.08
2023-04-08T00:46:58.784Z,24.50
2023-04-08T00:49:27.381Z,19.30
2023-04-08T00:51:56.270Z,18.88
2023-04-08T00:54:25.540Z,18.98
2023-04-08T00:56:53.397Z,22.73
2023-04-08T00:59:22.046Z,20.00
2023-04-08T01:02:28.163Z,15.70
2023-04-08T01:05:21.953Z,20.15
2023-04-08T01:07:51.603Z,20.25
2023-04-08T01:10:26.271Z,17.23
2023-04-08T01:12:58.038Z,22.95
2023-04-08T01:15:29.927Z,17.63
2023-04-08T01:18:00.205Z,17.57
2023-04-08T01:20:29.128Z,16.35
2023-04-08T01:23:01.963Z,22.98
2023-04-08T01:25:36.249Z,22.00
2023-04-08T01:28:16.540Z,25.00
2023-04-08T01:30:46.370Z,24.27
2023-04-08T01:33:16.100Z,20.60
2023-04-08T01:35:45.527Z,22.63
2023-04-08T01:38:16.943Z,20.77
2023-04-08T01:40:45.677Z,20.00
2023-04-08T01:43:16.080Z,19.52
2023-04-08T01:45:46.584Z,19.70
2023-04-08T01:48:16.191Z,20.65
2023-04-08T01:50:45.633Z,21.92
2023-04-08T01:53:14.448Z,26.02
2023-04-08T01:55:43.818Z,18.00
2023-04-08T01:58:19.525Z,22.30
2023-04-08T02:00:49.094Z,17.17
2023-04-08T02:03:19.832Z,19.63
2023-04-08T02:05:48.816Z,18.63
2023-04-08T02:08:16.646Z,18.10
2023-04-08T02:10:45.175Z,20.30
2023-04-08T02:13:13.022Z,19.17
2023-04-08T02:15:44.210Z,18.85
2023-04-08T02:18:17.233Z,20.08
2023-04-08T02:20:56.984Z,18.92
2023-04-08T02:23:25.895Z,20.35
2023-04-08T02:25:57.495Z,20.38
2023-04-08T02:28:29.642Z,20.70
2023-04-08T02:30:59.411Z,19.98
2023-04-08T02:33:27.915Z,18.98
2023-04-08T02:35:57.134Z,22.90
2023-04-08T02:38:25.242Z,22.95
2023-04-08T02:40:54.224Z,24.42
2023-04-08T02:43:27.229Z,24.50
2023-04-08T02:45:56.033Z,25.83
2023-04-08T02:48:24.576Z,29.52
2023-04-08T02:50:53.158Z,31.10
2023-04-08T02:53:23.751Z,32.55
2023-04-08T02:55:52.362Z,28.92
2023-04-08T02:58:20.325Z,27.15
2023-04-08T03:00:48.964Z,24.52
2023-04-08T03:03:16.864Z,27.55
2023-04-08T03:05:45.688Z,25.90
2023-04-08T03:08:13.655Z,23.38
2023-04-08T03:10:42.149Z,23.13
2023-04-08T03:13:10.850Z,24.58
2023-04-08T03:15:39.214Z,26.48
2023-04-08T03:18:07.095Z,24.35
2023-04-08T03:20:36.586Z,30.17
2023-04-08T03:23:05.318Z,27.15
2023-04-08T03:25:33.732Z,25.63
2023-04-08T03:28:01.680Z,24.17
2023-04-08T03:30:30.815Z,26.80
2023-04-08T03:32:58.481Z,24.17
2023-04-08T03:35:27.019Z,24.52
2023-04-08T03:37:56.159Z,26.95
2023-04-08T03:40:24.652Z,26.92
2023-04-08T03:42:52.672Z,24.77
2023-04-08T03:45:21.309Z,28.23
2023-04-08T03:47:49.380Z,30.35
2023-04-08T03:50:18.299Z,30.58
2023-04-08T03:52:46.017Z,29.80
2023-04-08T03:55:14.501Z,30.27
2023-04-08T03:57:42.357Z,25.40
2023-04-08T04:00:11.805Z,25.63
2023-04-08T04:02:42.424Z,23.05
2023-04-08T04:05:11.572Z,28.65
2023-04-08T04:07:39.162Z,25.05
2023-04-08T04:10:08.106Z,28.38
2023-04-08T04:12:36.036Z,24.40
2023-04-08T04:15:05.337Z,29.77
2023-04-08T04:17:32.931Z,29.92
2023-04-08T04:20:01.649Z,35.38
2023-04-08T04:22:30.171Z,29.55
2023-04-08T04:24:58.730Z,36.22
2023-04-08T04:27:26.364Z,27.88
2023-04-08T04:29:54.821Z,30.90
2023-04-08T04:32:43.619Z,36.08
2023-04-08T04:35:12.337Z,32.30
2023-04-08T04:37:39.992Z,45.45
2023-04-08T04:40:08.639Z,48.42
2023-04-08T04:42:36.962Z,47.45
2023-04-08T04:45:05.574Z,50.78
2023-04-08T04:47:33.602Z,44.92
2023-04-08T04:50:02.263Z,37.30
2023-04-08T04:52:30.165Z,31.50
2023-04-08T04:54:58.944Z,26.10
2023-04-08T04:57:27.087Z,25.40
2023-04-08T04:59:55.182Z,25.17
2023-04-08T05:02:23.024Z,22.85
2023-04-08T05:04:54.084Z,23.60
2023-04-08T05:07:22.683Z,24.00
2023-04-08T05:09:51.061Z,21.52
2023-04-08T05:12:20.945Z,30.30
2023-04-08T05:14:49.247Z,24.77
2023-04-08T05:17:17.396Z,23.45
2023-04-08T05:19:45.477Z,22.00
2023-04-08T05:22:13.358Z,21.65
2023-04-08T05:24:41.964Z,23.02
2023-04-08T05:27:09.951Z,22.70
2023-04-08T05:29:38.408Z,25.60
2023-04-08T05:32:06.274Z,23.08
2023-04-08T05:34:34.378Z,21.77
2023-04-08T05:37:02.227Z,22.88
2023-04-08T05:39:31.121Z,24.55
2023-04-08T05:41:59.057Z,22.50
2023-04-08T05:44:27.637Z,23.42
2023-04-08T05:46:56.144Z,19.85
2023-04-08T05:49:24.877Z,21.38
2023-04-08T05:51:53.056Z,17.58
2023-04-08T05:54:21.663Z,19.33
2023-04-08T05:56:49.598Z,20.90
2023-04-08T05:59:18.233Z,20.58
2023-04-08T06:01:46.278Z,22.17
2023-04-08T06:04:15.670Z,19.05
2023-04-08T06:06:44.513Z,20.88
2023-04-08T06:09:12.667Z,17.23
2023-04-08T06:11:40.977Z,18.17
2023-04-08T06:14:09.431Z,18.95
2023-04-08T06:16:37.573Z,18.70
2023-04-08T06:19:06.132Z,17.08
2023-04-08T06:21:34.633Z,17.27
2023-04-08T06:24:02.794Z,19.48
2023-04-08T06:26:30.691Z,18.95
2023-04-08T06:28:58.675Z,14.85
2023-04-08T06:31:27.069Z,18.33
2023-04-08T06:33:56.406Z,17.60
2023-04-08T06:36:24.287Z,16.65
2023-04-08T06:38:52.644Z,16.23
2023-04-08T06:41:20.832Z,15.43
2023-04-08T06:43:50.751Z,19.30
2023-04-08T06:46:18.523Z,14.52
2023-04-08T06:48:47.041Z,13.15
2023-04-08T06:51:15.368Z,15.05
2023-04-08T06:53:43.257Z,14.82
2023-04-08T06:56:11.717Z,13.13
2023-04-08T06:58:40.519Z,18.00
2023-04-08T07:01:08.701Z,16.85
2023-04-08T07:03:40.460Z,15.23
2023-04-08T07:06:08.872Z,18.60
2023-04-08T07:08:37.763Z,12.30
2023-04-08T07:11:06.199Z,16.98
2023-04-08T07:13:34.880Z,13.63
2023-04-08T07:16:02.910Z,13.30
2023-04-08T07:18:32.073Z,12.43
2023-04-08T07:21:01.651Z,13.65
2023-04-08T07:23:30.035Z,12.98
2023-04-08T07:26:03.799Z,12.52
2023-04-08T07:28:32.637Z,14.18
2023-04-08T07:31:16.881Z,12.98
2023-04-08T07:33:46.644Z,13.27
2023-04-08T07:36:15.809Z,11.70
2023-04-08T07:38:44.425Z,11.00
2023-04-08T07:41:14.060Z,13.23
2023-04-08T07:43:43.531Z,11.85
2023-04-08T07:46:11.464Z,11.13
2023-04-08T07:48:39.720Z,12.60
2023-04-08T07:51:11.103Z,11.55
2023-04-08T07:53:40.824Z,14.98
2023-04-08T07:56:13.393Z,11.75
2023-04-08T08:01:21.474Z,13.65
2023-04-08T08:03:51.592Z,14.10
2023-04-08T08:06:20.237Z,11.52
2023-04-08T08:08:48.995Z,10.95
2023-04-08T08:11:17.149Z,11.35
2023-04-08T08:13:45.950Z,11.45
2023-04-08T08:16:13.752Z,9.20
2023-04-08T08:18:43.114Z,12.25
2023-04-08T08:21:10.744Z,11.50
2023-04-08T08:23:39.259Z,10.70
2023-04-08T08:26:11.880Z,11.73
2023-04-08T08:28:40.496Z,12.90
2023-04-08T08:31:09.238Z,12.85
2023-04-08T08:33:37.749Z,10.57
2023-04-08T08:36:06.279Z,12.65
2023-04-08T08:38:35.008Z,14.23
2023-04-08T08:41:04.520Z,12.60
2023-04-08T08:43:33.993Z,12.18
2023-04-08T08:46:02.449Z,12.13
2023-04-08T08:48:32.912Z,10.15
2023-04-08T08:51:02.594Z,11.18
2023-04-08T08:53:34.428Z,11.02
2023-04-08T08:58:36.067Z,10.70
2023-04-08T09:01:04.438Z,11.20
2023-04-08T09:03:33.395Z,10.65
2023-04-08T09:06:02.687Z,13.02
2023-04-08T09:08:32.563Z,12.07
2023-04-08T09:11:20.638Z,13.02
2023-04-08T09:13:49.737Z,13.57
2023-04-08T09:16:20.143Z,14.57
2023-04-08T09:18:50.310Z,14.02
2023-04-08T09:21:18.815Z,11.93
2023-04-08T09:23:47.924Z,12.55
2023-04-08T09:26:22.312Z,10.77
2023-04-08T09:29:18.267Z,10.52
2023-04-08T09:32:00.550Z,12.70
2023-04-08T09:34:31.105Z,14.25
2023-04-08T09:36:59.702Z,14.32
2023-04-08T09:39:27.665Z,12.38
2023-04-08T09:41:59.044Z,10.82
2023-04-08T09:44:30.212Z,11.38
2023-04-08T09:47:21.128Z,11.75
2023-04-08T09:49:56.663Z,13.73
2023-04-08T09:52:47.058Z,10.73
2023-04-08T09:55:18.472Z,9.98
2023-04-08T09:57:53.434Z,12.07
2023-04-08T10:00:39.285Z,11.27
2023-04-08T10:03:41.555Z,11.68
2023-04-08T10:06:11.865Z,12.30
2023-04-08T10:08:39.753Z,12.95
2023-04-08T10:11:08.381Z,12.43
2023-04-08T10:13:38.617Z,10.32
2023-04-08T10:16:24.886Z,12.52
2023-04-08T10:18:55.875Z,12.77
2023-04-08T10:21:48.076Z,12.32
2023-04-08T10:24:15.356Z,11.73
2023-04-08T10:26:43.866Z,9.68
2023-04-08T10:29:31.703Z,11.90
2023-04-08T10:31:59.523Z,12.15
2023-04-08T10:34:28.220Z,12.50
2023-04-08T10:36:59.037Z,11.20
2023-04-08T10:39:27.293Z,11.48
2023-04-08T10:41:55.957Z,13.02
2023-04-08T10:44:25.142Z,11.15
2023-04-08T10:46:53.694Z,9.73
2023-04-08T10:49:22.204Z,11.85
2023-04-08T10:51:49.790Z,12.23
2023-04-08T10:54:18.272Z,11.73
2023-04-08T10:56:51.426Z,11.73
2023-04-08T10:59:28.676Z,10.18
2023-04-08T11:01:56.182Z,11.10
2023-04-08T11:04:23.890Z,10.20
2023-04-08T11:06:52.239Z,12.43
2023-04-08T11:09:19.899Z,9.25
2023-04-08T11:11:47.364Z,11.82
2023-04-08T11:14:15.683Z,11.65
2023-04-08T11:16:43.176Z,10.32
2023-04-08T11:19:10.377Z,10.27
2023-04-08T11:21:38.714Z,10.70
2023-04-08T11:24:13.547Z,10.90
2023-04-08T11:26:41.715Z,13.18
2023-04-08T11:29:15.424Z,10.80
2023-04-08T11:31:44.292Z,10.80
2023-04-08T11:34:12.200Z,10.25
2023-04-08T11:36:42.759Z,9.68
2023-04-08T11:39:12.246Z,10.32
2023-04-08T11:41:40.761Z,9.60
2023-04-08T11:44:08.323Z,10.15
2023-04-08T11:46:36.406Z,7.40
2023-04-08T11:49:06.401Z,9.60
2023-04-08T11:51:35.558Z,8.68
2023-04-08T11:54:07.456Z,7.47
2023-04-08T11:56:46.008Z,6.50
2023-04-08T11:59:13.359Z,7.97
2023-04-08T12:01:40.806Z,7.75
2023-04-08T12:04:10.582Z,10.95
2023-04-08T12:06:38.255Z,9.40
2023-04-08T12:09:05.482Z,8.48
2023-04-08T12:11:32.866Z,7.47
2023-04-08T12:14:00.336Z,9.05
2023-04-08T12:16:27.802Z,9.00
2023-04-08T12:18:55.092Z,8.10
2023-04-08T12:21:22.523Z,10.25
2023-04-08T12:23:50.911Z,9.85
2023-04-08T12:26:18.391Z,8.65
2023-04-08T12:28:46.354Z,8.13
2023-04-08T12:31:13.936Z,8.15
2023-04-08T12:33:41.416Z,9.40
2023-04-08T12:36:09.208Z,7.60
2023-04-08T12:38:37.546Z,7.25
2023-04-08T12:41:05.144Z,6.78
2023-04-08T12:43:33.186Z,9.15
2023-04-08T12:46:02.000Z,8.38
2023-04-08T12:48:29.098Z,9.38
2023-04-08T12:50:56.483Z,8.38
2023-04-08T12:53:23.682Z,16.13
2023-04-08T12:55:52.303Z,17.45
2023-04-08T12:58:21.401Z,7.70
2023-04-08T13:00:50.017Z,8.30
2023-04-08T13:03:18.048Z,10.95
2023-04-08T13:05:45.709Z,8.93
2023-04-08T13:08:13.246Z,8.48
2023-04-08T13:10:42.260Z,10.98
2023-04-08T13:13:09.396Z,8.50
2023-04-08T13:15:37.054Z,7.88
2023-04-08T13:18:04.976Z,8.00
2023-04-08T13:20:32.317Z,8.82
2023-04-08T13:23:00.768Z,7.20
2023-04-08T13:25:28.281Z,7.85
2023-04-08T13:27:55.456Z,8.43
2023-04-08T13:30:23.258Z,8.38
2023-04-08T13:32:50.570Z,9.23
2023-04-08T13:35:17.922Z,7.65
2023-04-08T13:37:45.063Z,7.10
2023-04-08T13:40:13.369Z,7.95
2023-04-08T13:42:40.469Z,6.15
2023-04-08T13:45:08.457Z,7.43
2023-04-08T13:47:37.928Z,8.50
2023-04-08T13:50:06.930Z,5.43
2023-04-08T13:52:34.312Z,6.65
2023-04-08T13:55:01.603Z,4.95
2023-04-08T13:57:28.878Z,4.88
2023-04-08T13:59:56.268Z,5.78
2023-04-08T14:02:23.684Z,6.95
2023-04-08T14:04:52.391Z,6.45
2023-04-08T14:07:19.997Z,9.15
2023-04-08T14:09:47.350Z,6.22
2023-04-08T14:12:14.493Z,7.40
2023-04-08T14:14:41.913Z,7.40
2023-04-08T14:17:09.261Z,9.85
2023-04-08T14:19:36.867Z,8.60
2023-04-08T14:22:03.939Z,7.45
2023-04-08T14:24:31.434Z,7.80
2023-04-08T14:26:59.111Z,8.75
2023-04-08T14:29:27.651Z,8.68
2023-04-08T14:31:55.149Z,8.07
2023-04-08T14:34:22.707Z,8.15
2023-04-08T14:36:50.014Z,9.85
2023-04-08T14:39:17.482Z,9.48
2023-04-08T14:41:44.681Z,8.32
2023-04-08T14:44:12.121Z,7.80
2023-04-08T14:46:39.784Z,7.85
2023-04-08T14:49:07.322Z,8.23
2023-04-08T14:51:34.551Z,10.30
2023-04-08T14:54:02.222Z,7.90
2023-04-08T14:56:29.454Z,8.30
2023-04-08T14:58:56.940Z,7.40
2023-04-08T15:01:24.117Z,8.18
2023-04-08T15:03:51.723Z,8.98
2023-04-08T15:06:20.847Z,8.88
2023-04-08T15:08:48.299Z,7.03
2023-04-08T15:11:15.536Z,7.68
2023-04-08T15:13:42.986Z,10.57
2023-04-08T15:16:10.388Z,10.48
2023-04-08T15:18:37.909Z,8.90
2023-04-08T15:21:05.679Z,8.85
2023-04-08T15:23:33.273Z,8.10
2023-04-08T15:26:00.312Z,8.00
2023-04-08T15:28:28.183Z,11.40
2023-04-08T15:30:55.429Z,10.05
2023-04-08T15:33:22.923Z,12.13
2023-04-08T15:35:50.355Z,14.07
2023-04-08T15:38:17.956Z,15.57
2023-04-08T15:40:47.397Z,12.02
2023-04-08T15:43:15.814Z,13.38
2023-04-08T15:45:46.775Z,17.08
2023-04-08T15:48:14.437Z,9.50
2023-04-08T15:50:42.221Z,9.73
2023-04-08T15:53:09.727Z,9.07
2023-04-08T15:55:41.094Z,9.38
2023-04-08T15:58:08.571Z,9.23
2023-04-08T16:00:35.762Z,9.00
2023-04-08T16:03:05.549Z,11.45
2023-04-08T16:05:36.070Z,7.50
2023-04-08T16:08:04.726Z,9.25
2023-04-08T16:10:31.957Z,10.02
2023-04-08T16:12:59.534Z,10.05
2023-04-08T16:15:26.791Z,10.55
2023-04-08T16:17:54.454Z,8.18
2023-04-08T16:20:22.056Z,8.90
2023-04-08T16:22:50.355Z,10.60
2023-04-08T16:25:17.901Z,9.98
2023-04-08T16:27:45.422Z,8.98
2023-04-08T16:30:12.663Z,8.25
2023-04-08T16:32:40.579Z,8.13
2023-04-08T16:35:08.528Z,10.05
2023-04-08T16:37:36.019Z,11.02
2023-04-08T16:40:03.882Z,11.43
2023-04-08T16:42:33.062Z,11.30
2023-04-08T16:45:01.260Z,9.32
2023-04-08T16:47:28.945Z,10.57
2023-04-08T16:49:56.561Z,10.07
2023-04-08T16:52:23.993Z,8.45
2023-04-08T16:54:52.377Z,9.95
2023-04-08T16:57:19.908Z,13.63
2023-04-08T16:59:47.207Z,10.50
2023-04-08T17:02:14.707Z,10.15
2023-04-08T17:04:42.176Z,10.65
2023-04-08T17:07:09.551Z,13.38
2023-04-08T17:09:37.428Z,13.00
2023-04-08T17:12:05.375Z,16.13
2023-04-08T17:14:34.033Z,16.77
2023-04-08T17:17:01.466Z,14.13
2023-04-08T17:19:28.566Z,15.50
2023-04-08T17:21:55.952Z,16.08
2023-04-08T17:24:23.283Z,13.38
2023-04-08T17:26:50.853Z,15.55
2023-04-08T17:29:18.505Z,12.93
2023-04-08T17:31:46.172Z,13.70
2023-04-08T17:34:13.283Z,15.48
2023-04-08T17:36:40.872Z,10.68
2023-04-08T17:39:08.354Z,10.32
2023-04-08T17:41:40.452Z,11.57
2023-04-08T17:44:08.470Z,11.05
2023-04-08T17:46:35.996Z,10.35
2023-04-08T17:49:03.224Z,11.50
2023-04-08T17:51:31.093Z,10.40
2023-04-08T17:53:58.898Z,8.07
2023-04-08T17:56:27.987Z,12.80
2023-04-08T17:58:55.153Z,12.90
2023-04-08T18:01:23.070Z,10.68
2023-04-08T18:03:53.781Z,10.13
2023-04-08T18:06:21.472Z,10.75
2023-04-08T18:08:48.771Z,11.98
2023-04-08T18:11:16.384Z,13.73
2023-04-08T18:13:43.648Z,13.15
2023-04-08T18:16:18.697Z,11.32
2023-04-08T18:18:46.994Z,14.48
2023-04-08T18:21:18.549Z,15.48
2023-04-08T18:23:49.238Z,16.83
2023-04-08T18:26:16.745Z,17.92
2023-04-08T18:28:43.908Z,20.05
2023-04-08T18:31:11.468Z,17.90
2023-04-08T18:33:41.507Z,18.00
2023-04-08T18:36:10.306Z,27.45
2023-04-08T18:38:38.268Z,27.20
2023-04-08T18:41:06.522Z,33.75
2023-04-08T18:43:34.073Z,33.10
2023-04-08T18:46:01.973Z,34.90
2023-04-08T18:48:29.601Z,24.42
2023-04-08T18:50:57.711Z,23.00
2023-04-08T18:53:24.955Z,24.08
2023-04-08T18:55:52.423Z,29.73
2023-04-08T18:58:19.680Z,26.40
2023-04-08T19:00:47.034Z,32.38
2023-04-08T19:03:14.583Z,32.70
2023-04-08T19:05:42.429Z,32.15
2023-04-08T19:08:09.987Z,30.73
2023-04-08T19:10:37.178Z,28.70
2023-04-08T19:13:04.680Z,20.75
2023-04-08T19:15:32.109Z,26.10
2023-04-08T19:18:00.682Z,25.25
2023-04-08T19:20:28.677Z,21.80
2023-04-08T19:22:56.598Z,26.45
2023-04-08T19:25:23.811Z,25.60
2023-04-08T19:27:51.241Z,22.83
2023-04-08T19:30:18.604Z,27.45
2023-04-08T19:32:46.976Z,31.15
2023-04-08T19:35:14.233Z,30.15
2023-04-08T19:37:41.888Z,27.77
2023-04-08T19:40:09.648Z,26.27
2023-04-08T19:42:37.020Z,28.38
2023-04-08T19:45:05.644Z,28.67
2023-04-08T19:47:33.360Z,28.58
2023-04-08T19:50:00.760Z,27.17
2023-04-08T19:52:28.283Z,26.05
2023-04-08T19:54:55.642Z,25.50
2023-04-08T19:57:24.186Z,27.50
2023-04-08T19:59:54.836Z,25.13
2023-04-08T20:02:24.643Z,25.13
2023-04-08T20:04:52.178Z,24.80
2023-04-08T20:07:19.573Z,26.92
2023-04-08T20:09:47.028Z,21.52
2023-04-08T20:12:14.442Z,25.13
2023-04-08T20:14:43.350Z,27.83
2023-04-08T20:17:11.711Z,27.95
2023-04-08T20:19:39.235Z,24.85
2023-04-08T20:22:07.176Z,28.83
2023-04-08T20:24:34.257Z,28.38
2023-04-08T20:27:01.627Z,29.42
2023-04-08T20:29:29.703Z,29.17
2023-04-08T20:31:57.943Z,35.75
2023-04-08T20:34:25.395Z,40.78
2023-04-08T20:36:52.969Z,36.38
2023-04-08T20:39:20.244Z,37.63
2023-04-08T20:41:47.686Z,37.03
2023-04-08T20:44:14.907Z,35.58
2023-04-08T20:46:42.850Z,35.50
2023-04-08T20:49:10.059Z,36.90
2023-04-08T20:51:37.740Z,36.65
2023-04-08T20:54:05.049Z,38.20
2023-04-08T20:56:32.568Z,38.97
2023-04-08T20:59:00.511Z,34.63
2023-04-08T21:01:28.012Z,41.67
2023-04-08T21:03:56.073Z,38.15
2023-04-08T21:06:23.844Z,41.63
2023-04-08T21:08:51.705Z,36.75
2023-04-08T21:11:19.582Z,44.97
2023-04-08T21:13:48.847Z,43.38
2023-04-08T21:16:16.829Z,42.45
2023-04-08T21:18:43.955Z,40.28
2023-04-08T21:21:11.467Z,48.83
2023-04-08T21:23:38.722Z,50.63
2023-04-08T21:26:15.514Z,50.10
2023-04-08T21:28:44.111Z,43.85
2023-04-08T21:31:11.938Z,36.88
2023-04-08T21:33:39.725Z,35.63
2023-04-08T21:36:07.492Z,33.05
2023-04-08T21:38:35.112Z,31.55
2023-04-08T21:41:02.604Z,30.08
2023-04-08T21:43:29.903Z,34.33
2023-04-08T21:45:57.588Z,37.72
2023-04-08T21:48:24.892Z,32.72
2023-04-08T21:50:53.233Z,37.22
2023-04-08T21:53:22.190Z,37.85
2023-04-08T21:55:49.731Z,44.35
2023-04-08T21:58:17.256Z,45.67
2023-04-08T22:00:44.964Z,46.10
2023-04-08T22:03:12.380Z,49.67
2023-04-08T22:05:40.076Z,47.25
2023-04-08T22:08:07.262Z,49.15
2023-04-08T22:10:34.744Z,48.95
2023-04-08T22:13:02.254Z,46.38
2023-04-08T22:15:29.777Z,46.50
2023-04-08T22:17:57.389Z,52.83
2023-04-08T22:20:24.921Z,54.20
2023-04-08T22:22:53.107Z,51.78
2023-04-08T22:25:21.019Z,48.03
2023-04-08T22:27:48.322Z,47.53
2023-04-08T22:30:16.083Z,47.35
2023-04-08T22:32:43.193Z,46.20
2023-04-08T22:35:10.818Z,47.30
2023-04-08T22:37:38.098Z,45.63
2023-04-08T22:40:06.292Z,42.97
2023-04-08T22:42:33.395Z,38.70
2023-04-08T22:45:00.873Z,42.47
2023-04-08T22:47:27.995Z,39.30
2023-04-08T22:49:55.498Z,43.53
2023-04-08T22:52:22.599Z,33.15
2023-04-08T22:54:50.036Z,37.75
2023-04-08T22:57:17.190Z,34.35
2023-04-08T22:59:44.456Z,33.47
2023-04-08T23:02:11.848Z,28.13
2023-04-08T23:04:39.708Z,32.60
2023-04-08T23:07:06.928Z,29.30
2023-04-08T23:09:34.333Z,31.02
2023-04-08T23:12:01.746Z,32.63
2023-04-08T23:14:29.174Z,28.65
2023-04-08T23:16:56.684Z,32.95
2023-04-08T23:19:24.213Z,29.15
2023-04-08T23:21:51.391Z,32.63
2023-04-08T23:24:18.675Z,30.58
2023-04-08T23:26:46.049Z,29.13
2023-04-08T23:29:13.506Z,27.27
2023-04-08T23:31:40.713Z,31.75
2023-04-08T23:34:08.222Z,37.25
2023-04-08T23:36:35.352Z,45.13
2023-04-08T23:39:02.845Z,32.17
2023-04-08T23:41:30.154Z,41.58
2023-04-08T23:43:57.576Z,38.40
2023-04-08T23:46:25.145Z,42.67
2023-04-08T23:48:52.818Z,44.05
2023-04-08T23:51:20.403Z,37.08
2023-04-08T23:53:47.730Z,38.97
2023-04-08T23:56:14.885Z,39.10
2023-04-08T23:58:42.238Z,34.42
